Glenariff, United Kingdom
Current Conditions -  °F | °C
As of 9:50 AM on Monday 22 Dec 2014 (Local Time) from EGAA Reporting Station
Light Rain Light Rain  
Wind Chill: 50°   Ceiling: 1500
Heat Index: 50°   Visibility: 6mi
Dew Point: 50°   Wind: 10mph
Humidity: 100%   Direction: 250°WSW
Pressure: 29.71"   Gusts: NA
Location:  55.05°N, 6.07°W
Report Text: EGAA 220950Z 25009KT 9000 -RA FEW002 SCT009 BKN015 10/10 Q1006
Loading
Personal Weather Stations






























Interactive Weather Map New forecast layout! Learn more

10-Day Weather Forecast

Advertisements
Track Severe Weather on mobile